sensor_id;sensor_type;location;lat;lon;timestamp;pressure;altitude;pressure_sealevel;temperature;humidity
36222;BME280;22266;52.340;4.962;2023-06-14T00:02:21;101570.19;;;21.38;47.44
36222;BME280;22266;52.340;4.962;2023-06-14T00:04:48;101569.94;;;21.23;47.79
36222;BME280;22266;52.340;4.962;2023-06-14T00:07:17;101572.56;;;21.18;48.22
36222;BME280;22266;52.340;4.962;2023-06-14T00:09:45;101572.41;;;21.24;48.36
36222;BME280;22266;52.340;4.962;2023-06-14T00:12:12;101566.69;;;21.26;47.47
36222;BME280;22266;52.340;4.962;2023-06-14T00:14:38;101567.19;;;21.23;47.38
36222;BME280;22266;52.340;4.962;2023-06-14T00:17:05;101565.09;;;21.30;47.63
36222;BME280;22266;52.340;4.962;2023-06-14T00:19:33;101568.09;;;21.29;46.74
36222;BME280;22266;52.340;4.962;2023-06-14T00:22:02;101567.50;;;21.27;47.37
36222;BME280;22266;52.340;4.962;2023-06-14T00:24:30;101572.03;;;21.33;47.33
36222;BME280;22266;52.340;4.962;2023-06-14T00:26:56;101570.47;;;21.37;47.65
36222;BME280;22266;52.340;4.962;2023-06-14T00:29:23;101574.44;;;21.46;47.60
36222;BME280;22266;52.340;4.962;2023-06-14T00:31:49;101569.78;;;21.46;47.18
36222;BME280;22266;52.340;4.962;2023-06-14T00:34:17;101563.00;;;21.49;46.98
36222;BME280;22266;52.340;4.962;2023-06-14T00:36:44;101566.22;;;21.46;46.56
36222;BME280;22266;52.340;4.962;2023-06-14T00:39:13;101567.88;;;21.47;46.76
36222;BME280;22266;52.340;4.962;2023-06-14T00:41:39;101568.72;;;21.47;46.74
36222;BME280;22266;52.340;4.962;2023-06-14T00:44:06;101570.03;;;21.45;46.50
36222;BME280;22266;52.340;4.962;2023-06-14T00:46:33;101559.66;;;21.47;46.89
36222;BME280;22266;52.340;4.962;2023-06-14T00:49:00;101571.69;;;21.46;46.29
36222;BME280;22266;52.340;4.962;2023-06-14T00:51:27;101564.16;;;21.36;45.60
36222;BME280;22266;52.340;4.962;2023-06-14T00:53:54;101564.59;;;21.16;45.20
36222;BME280;22266;52.340;4.962;2023-06-14T00:56:21;101572.81;;;20.99;45.62
36222;BME280;22266;52.340;4.962;2023-06-14T00:58:50;101570.94;;;20.88;45.31
36222;BME280;22266;52.340;4.962;2023-06-14T01:01:17;101565.72;;;20.87;45.38
36222;BME280;22266;52.340;4.962;2023-06-14T01:03:43;101571.91;;;20.82;45.19
36222;BME280;22266;52.340;4.962;2023-06-14T01:06:20;101567.91;;;20.73;45.49
36222;BME280;22266;52.340;4.962;2023-06-14T01:11:57;101567.91;;;20.73;46.66
36222;BME280;22266;52.340;4.962;2023-06-14T01:14:25;101563.38;;;20.79;46.05
36222;BME280;22266;52.340;4.962;2023-06-14T01:16:54;101572.31;;;20.74;45.10
36222;BME280;22266;52.340;4.962;2023-06-14T01:19:22;101573.41;;;20.61;45.17
36222;BME280;22266;52.340;4.962;2023-06-14T01:21:52;101567.94;;;20.61;45.77
36222;BME280;22266;52.340;4.962;2023-06-14T01:24:19;101572.38;;;20.62;45.76
36222;BME280;22266;52.340;4.962;2023-06-14T01:26:55;101565.47;;;20.60;46.23
36222;BME280;22266;52.340;4.962;2023-06-14T01:29:27;101567.38;;;20.59;45.83
36222;BME280;22266;52.340;4.962;2023-06-14T01:32:02;101565.38;;;20.55;46.10
36222;BME280;22266;52.340;4.962;2023-06-14T01:34:30;101561.47;;;20.51;46.10
36222;BME280;22266;52.340;4.962;2023-06-14T01:36:57;101569.28;;;20.47;45.91
36222;BME280;22266;52.340;4.962;2023-06-14T01:39:25;101562.03;;;20.41;46.18
36222;BME280;22266;52.340;4.962;2023-06-14T01:41:52;101571.69;;;20.43;46.01
36222;BME280;22266;52.340;4.962;2023-06-14T01:44:20;101573.47;;;20.49;46.06
36222;BME280;22266;52.340;4.962;2023-06-14T01:46:47;101571.94;;;20.42;45.85
36222;BME280;22266;52.340;4.962;2023-06-14T01:49:14;101569.78;;;20.44;46.11
36222;BME280;22266;52.340;4.962;2023-06-14T01:51:40;101573.47;;;20.49;46.03
36222;BME280;22266;52.340;4.962;2023-06-14T01:54:07;101568.59;;;20.52;45.86
36222;BME280;22266;52.340;4.962;2023-06-14T01:56:34;101571.81;;;20.48;46.17
36222;BME280;22266;52.340;4.962;2023-06-14T01:59:00;101574.66;;;20.42;45.46
36222;BME280;22266;52.340;4.962;2023-06-14T02:01:27;101577.78;;;20.34;45.81
36222;BME280;22266;52.340;4.962;2023-06-14T02:03:54;101567.53;;;20.29;45.86
36222;BME280;22266;52.340;4.962;2023-06-14T02:06:21;101570.16;;;20.24;45.73
36222;BME280;22266;52.340;4.962;2023-06-14T02:08:47;101573.25;;;20.28;45.75
36222;BME280;22266;52.340;4.962;2023-06-14T02:11:14;101566.00;;;20.21;45.12
36222;BME280;22266;52.340;4.962;2023-06-14T02:13:40;101569.81;;;20.20;45.25
36222;BME280;22266;52.340;4.962;2023-06-14T02:16:07;101559.22;;;20.24;45.17
36222;BME280;22266;52.340;4.962;2023-06-14T02:18:33;101569.34;;;20.23;45.33
36222;BME280;22266;52.340;4.962;2023-06-14T02:21:00;101563.16;;;20.28;44.95
36222;BME280;22266;52.340;4.962;2023-06-14T02:23:28;101565.44;;;20.19;44.43
36222;BME280;22266;52.340;4.962;2023-06-14T02:25:58;101563.53;;;20.08;44.44
36222;BME280;22266;52.340;4.962;2023-06-14T02:28:25;101565.53;;;20.13;45.51
36222;BME280;22266;52.340;4.962;2023-06-14T02:30:52;101571.16;;;20.18;45.66
36222;BME280;22266;52.340;4.962;2023-06-14T02:33:22;101576.00;;;20.28;45.76
36222;BME280;22266;52.340;4.962;2023-06-14T02:35:48;101570.97;;;20.36;46.18
36222;BME280;22266;52.340;4.962;2023-06-14T02:38:15;101577.03;;;20.38;46.68
36222;BME280;22266;52.340;4.962;2023-06-14T02:40:41;101575.97;;;20.39;46.81
36222;BME280;22266;52.340;4.962;2023-06-14T02:43:09;101587.25;;;20.43;47.22
36222;BME280;22266;52.340;4.962;2023-06-14T02:45:35;101578.78;;;20.44;47.30
36222;BME280;22266;52.340;4.962;2023-06-14T02:48:02;101581.78;;;20.43;47.04
36222;BME280;22266;52.340;4.962;2023-06-14T02:50:28;101584.16;;;20.39;47.23
36222;BME280;22266;52.340;4.962;2023-06-14T02:52:56;101577.88;;;20.39;47.33
36222;BME280;22266;52.340;4.962;2023-06-14T02:55:23;101579.78;;;20.38;47.44
36222;BME280;22266;52.340;4.962;2023-06-14T02:57:49;101585.47;;;20.37;47.73
36222;BME280;22266;52.340;4.962;2023-06-14T03:00:17;101583.47;;;20.32;47.78
36222;BME280;22266;52.340;4.962;2023-06-14T03:02:46;101589.56;;;20.22;47.54
36222;BME280;22266;52.340;4.962;2023-06-14T03:05:13;101584.47;;;20.14;48.12
36222;BME280;22266;52.340;4.962;2023-06-14T03:07:41;101586.13;;;20.15;48.17
36222;BME280;22266;52.340;4.962;2023-06-14T03:10:11;101591.84;;;20.02;48.11
36222;BME280;22266;52.340;4.962;2023-06-14T03:12:41;101596.13;;;19.98;48.14
36222;BME280;22266;52.340;4.962;2023-06-14T03:15:09;101601.59;;;19.86;48.38
36222;BME280;22266;52.340;4.962;2023-06-14T03:17:40;101598.97;;;19.80;49.24
36222;BME280;22266;52.340;4.962;2023-06-14T03:20:08;101600.03;;;19.79;48.92
36222;BME280;22266;52.340;4.962;2023-06-14T03:22:35;101598.25;;;19.84;48.89
36222;BME280;22266;52.340;4.962;2023-06-14T03:25:01;101609.16;;;19.72;47.71
36222;BME280;22266;52.340;4.962;2023-06-14T03:27:33;101610.25;;;19.71;47.84
36222;BME280;22266;52.340;4.962;2023-06-14T03:30:00;101611.69;;;19.74;47.72
36222;BME280;22266;52.340;4.962;2023-06-14T03:32:28;101610.91;;;19.55;47.34
36222;BME280;22266;52.340;4.962;2023-06-14T03:34:55;101618.50;;;19.41;47.88
36222;BME280;22266;52.340;4.962;2023-06-14T03:37:23;101620.47;;;19.34;48.04
36222;BME280;22266;52.340;4.962;2023-06-14T03:39:49;101622.75;;;19.37;48.09
36222;BME280;22266;52.340;4.962;2023-06-14T03:42:20;101623.69;;;19.43;47.48
36222;BME280;22266;52.340;4.962;2023-06-14T03:44:47;101623.00;;;19.47;46.98
36222;BME280;22266;52.340;4.962;2023-06-14T03:47:15;101628.09;;;19.44;46.51
36222;BME280;22266;52.340;4.962;2023-06-14T03:49:42;101617.66;;;19.41;46.42
36222;BME280;22266;52.340;4.962;2023-06-14T03:52:09;101619.19;;;19.37;45.89
36222;BME280;22266;52.340;4.962;2023-06-14T03:54:38;101623.47;;;19.33;46.28
36222;BME280;22266;52.340;4.962;2023-06-14T03:57:08;101622.34;;;19.22;45.74
36222;BME280;22266;52.340;4.962;2023-06-14T03:59:34;101630.25;;;19.12;46.52
36222;BME280;22266;52.340;4.962;2023-06-14T04:02:02;101630.63;;;19.15;46.49
36222;BME280;22266;52.340;4.962;2023-06-14T04:04:28;101636.44;;;19.19;46.75
36222;BME280;22266;52.340;4.962;2023-06-14T04:06:57;101639.47;;;19.29;45.91
36222;BME280;22266;52.340;4.962;2023-06-14T04:09:25;101636.63;;;19.36;46.28
36222;BME280;22266;52.340;4.962;2023-06-14T04:11:52;101638.31;;;19.37;45.84
36222;BME280;22266;52.340;4.962;2023-06-14T04:14:19;101650.28;;;19.36;45.61
36222;BME280;22266;52.340;4.962;2023-06-14T04:16:47;101644.44;;;19.20;45.93
36222;BME280;22266;52.340;4.962;2023-06-14T04:19:16;101644.06;;;19.17;46.17
36222;BME280;22266;52.340;4.962;2023-06-14T04:21:42;101660.31;;;19.23;46.21
36222;BME280;22266;52.340;4.962;2023-06-14T04:24:09;101655.81;;;19.17;45.75
36222;BME280;22266;52.340;4.962;2023-06-14T04:26:45;101655.88;;;19.11;45.65
36222;BME280;22266;52.340;4.962;2023-06-14T04:29:15;101651.75;;;19.08;46.33
36222;BME280;22266;52.340;4.962;2023-06-14T04:31:46;101650.88;;;19.08;46.48
36222;BME280;22266;52.340;4.962;2023-06-14T04:34:13;101653.28;;;19.16;46.70
36222;BME280;22266;52.340;4.962;2023-06-14T04:36:49;101658.28;;;19.19;46.37
36222;BME280;22266;52.340;4.962;2023-06-14T04:39:16;101661.38;;;19.22;46.55
36222;BME280;22266;52.340;4.962;2023-06-14T04:41:46;101667.69;;;19.23;46.09
36222;BME280;22266;52.340;4.962;2023-06-14T04:44:13;101659.81;;;19.15;46.44
36222;BME280;22266;52.340;4.962;2023-06-14T04:46:44;101661.28;;;18.99;46.83
36222;BME280;22266;52.340;4.962;2023-06-14T04:49:19;101659.63;;;18.98;47.27
36222;BME280;22266;52.340;4.962;2023-06-14T04:51:45;101660.00;;;19.01;46.94
36222;BME280;22266;52.340;4.962;2023-06-14T04:54:13;101659.69;;;18.91;46.79
36222;BME280;22266;52.340;4.962;2023-06-14T04:56:41;101665.97;;;18.80;46.82
36222;BME280;22266;52.340;4.962;2023-06-14T04:59:10;101666.84;;;18.74;47.15
36222;BME280;22266;52.340;4.962;2023-06-14T05:01:41;101664.97;;;18.74;47.49
36222;BME280;22266;52.340;4.962;2023-06-14T05:04:08;101665.72;;;18.82;47.77
36222;BME280;22266;52.340;4.962;2023-06-14T05:06:34;101663.13;;;18.87;47.40
36222;BME280;22266;52.340;4.962;2023-06-14T05:09:02;101654.50;;;18.90;47.46
36222;BME280;22266;52.340;4.962;2023-06-14T05:11:29;101663.63;;;18.95;47.85
36222;BME280;22266;52.340;4.962;2023-06-14T05:13:55;101669.34;;;18.94;47.50
36222;BME280;22266;52.340;4.962;2023-06-14T05:16:24;101667.06;;;18.91;47.08
36222;BME280;22266;52.340;4.962;2023-06-14T05:18:52;101670.09;;;18.83;47.32
36222;BME280;22266;52.340;4.962;2023-06-14T05:21:18;101673.13;;;18.74;47.72
36222;BME280;22266;52.340;4.962;2023-06-14T05:23:45;101667.81;;;18.80;48.04
36222;BME280;22266;52.340;4.962;2023-06-14T05:26:11;101665.84;;;18.87;47.76
36222;BME280;22266;52.340;4.962;2023-06-14T05:28:38;101665.41;;;18.90;47.26
36222;BME280;22266;52.340;4.962;2023-06-14T05:31:04;101668.25;;;18.95;47.57
36222;BME280;22266;52.340;4.962;2023-06-14T05:33:31;101661.13;;;19.12;46.89
36222;BME280;22266;52.340;4.962;2023-06-14T05:35:57;101666.53;;;19.31;47.17
36222;BME280;22266;52.340;4.962;2023-06-14T05:38:24;101661.25;;;19.59;46.99
36222;BME280;22266;52.340;4.962;2023-06-14T05:40:51;101676.78;;;19.89;46.15
36222;BME280;22266;52.340;4.962;2023-06-14T05:43:18;101676.22;;;20.10;45.81
36222;BME280;22266;52.340;4.962;2023-06-14T05:45:44;101675.50;;;20.27;45.38
36222;BME280;22266;52.340;4.962;2023-06-14T05:48:11;101676.69;;;20.31;45.00
36222;BME280;22266;52.340;4.962;2023-06-14T05:50:37;101682.16;;;20.31;44.95
36222;BME280;22266;52.340;4.962;2023-06-14T05:53:04;101684.28;;;20.29;45.27
36222;BME280;22266;52.340;4.962;2023-06-14T05:55:30;101683.69;;;20.27;44.70
36222;BME280;22266;52.340;4.962;2023-06-14T05:57:57;101692.25;;;20.07;45.31
36222;BME280;22266;52.340;4.962;2023-06-14T06:00:23;101698.09;;;20.10;46.37
36222;BME280;22266;52.340;4.962;2023-06-14T06:02:50;101701.28;;;20.19;46.10
36222;BME280;22266;52.340;4.962;2023-06-14T06:05:17;101696.16;;;19.99;45.27
36222;BME280;22266;52.340;4.962;2023-06-14T06:07:44;101702.47;;;19.99;46.22
36222;BME280;22266;52.340;4.962;2023-06-14T06:10:11;101689.72;;;20.05;46.37
36222;BME280;22266;52.340;4.962;2023-06-14T06:12:38;101707.09;;;19.99;46.03
36222;BME280;22266;52.340;4.962;2023-06-14T06:15:05;101697.94;;;19.93;45.95
36222;BME280;22266;52.340;4.962;2023-06-14T06:17:32;101697.59;;;19.90;46.47
36222;BME280;22266;52.340;4.962;2023-06-14T06:20:18;101695.22;;;19.93;46.83
36222;BME280;22266;52.340;4.962;2023-06-14T06:22:45;101703.28;;;20.00;46.44
36222;BME280;22266;52.340;4.962;2023-06-14T06:25:11;101700.19;;;19.96;46.64
36222;BME280;22266;52.340;4.962;2023-06-14T06:27:38;101694.50;;;19.98;46.62
36222;BME280;22266;52.340;4.962;2023-06-14T06:30:07;101710.75;;;19.93;45.92
36222;BME280;22266;52.340;4.962;2023-06-14T06:32:33;101704.34;;;19.87;46.97
36222;BME280;22266;52.340;4.962;2023-06-14T06:35:00;101709.34;;;19.90;46.54
36222;BME280;22266;52.340;4.962;2023-06-14T06:37:26;101711.72;;;19.87;46.49
36222;BME280;22266;52.340;4.962;2023-06-14T06:39:53;101710.06;;;19.86;46.97
36222;BME280;22266;52.340;4.962;2023-06-14T06:42:19;101705.06;;;19.94;46.94
36222;BME280;22266;52.340;4.962;2023-06-14T06:44:49;101719.44;;;19.90;46.61
36222;BME280;22266;52.340;4.962;2023-06-14T06:47:16;101707.31;;;19.86;46.81
36222;BME280;22266;52.340;4.962;2023-06-14T06:49:42;101716.81;;;19.83;46.67
36222;BME280;22266;52.340;4.962;2023-06-14T06:52:09;101730.47;;;19.83;46.58
36222;BME280;22266;52.340;4.962;2023-06-14T06:54:35;101724.53;;;19.86;47.40
36222;BME280;22266;52.340;4.962;2023-06-14T06:57:02;101725.28;;;19.93;47.51
36222;BME280;22266;52.340;4.962;2023-06-14T06:59:28;101724.19;;;19.94;46.92
36222;BME280;22266;52.340;4.962;2023-06-14T07:01:55;101725.97;;;20.00;47.34
36222;BME280;22266;52.340;4.962;2023-06-14T07:04:22;101728.63;;;20.07;47.41
36222;BME280;22266;52.340;4.962;2023-06-14T07:06:48;101732.41;;;20.06;47.50
36222;BME280;22266;52.340;4.962;2023-06-14T07:09:15;101736.81;;;20.07;47.55
36222;BME280;22266;52.340;4.962;2023-06-14T07:11:43;101731.25;;;20.14;47.82
36222;BME280;22266;52.340;4.962;2023-06-14T07:14:10;101733.03;;;20.20;46.70
36222;BME280;22266;52.340;4.962;2023-06-14T07:16:36;101738.84;;;20.23;46.35
36222;BME280;22266;52.340;4.962;2023-06-14T07:19:03;101739.47;;;20.25;46.28
36222;BME280;22266;52.340;4.962;2023-06-14T07:21:30;101741.22;;;20.32;46.33
36222;BME280;22266;52.340;4.962;2023-06-14T07:23:57;101748.84;;;20.30;45.66
36222;BME280;22266;52.340;4.962;2023-06-14T07:26:23;101748.25;;;20.39;45.58
36222;BME280;22266;52.340;4.962;2023-06-14T07:28:50;101753.97;;;20.38;45.57
36222;BME280;22266;52.340;4.962;2023-06-14T07:31:16;101757.63;;;20.32;45.80
36222;BME280;22266;52.340;4.962;2023-06-14T07:33:45;101759.31;;;20.44;45.84
36222;BME280;22266;52.340;4.962;2023-06-14T07:36:12;101758.75;;;20.54;45.94
36222;BME280;22266;52.340;4.962;2023-06-14T07:38:38;101767.78;;;20.66;45.61
36222;BME280;22266;52.340;4.962;2023-06-14T07:41:07;101764.69;;;20.74;46.14
36222;BME280;22266;52.340;4.962;2023-06-14T07:43:33;101759.06;;;20.81;45.37
36222;BME280;22266;52.340;4.962;2023-06-14T07:46:00;101758.94;;;20.88;44.73
36222;BME280;22266;52.340;4.962;2023-06-14T07:48:33;101767.03;;;20.94;44.36
36222;BME280;22266;52.340;4.962;2023-06-14T07:51:00;101767.97;;;21.00;43.62
36222;BME280;22266;52.340;4.962;2023-06-14T07:53:28;101762.41;;;20.95;43.82
36222;BME280;22266;52.340;4.962;2023-06-14T07:55:54;101770.72;;;21.00;43.60
36222;BME280;22266;52.340;4.962;2023-06-14T07:58:21;101770.34;;;21.08;43.65
36222;BME280;22266;52.340;4.962;2023-06-14T08:00:48;101777.34;;;21.16;44.22
36222;BME280;22266;52.340;4.962;2023-06-14T08:03:14;101780.53;;;21.24;44.19
36222;BME280;22266;52.340;4.962;2023-06-14T08:05:41;101780.28;;;21.38;43.23
36222;BME280;22266;52.340;4.962;2023-06-14T08:08:07;101784.44;;;21.40;42.59
36222;BME280;22266;52.340;4.962;2023-06-14T08:10:34;101778.38;;;21.38;42.33
36222;BME280;22266;52.340;4.962;2023-06-14T08:13:00;101780.72;;;21.46;41.26
36222;BME280;22266;52.340;4.962;2023-06-14T08:15:27;101781.53;;;21.47;41.26
36222;BME280;22266;52.340;4.962;2023-06-14T08:17:54;101782.72;;;21.51;41.79
36222;BME280;22266;52.340;4.962;2023-06-14T08:20:20;101784.59;;;21.62;40.83
36222;BME280;22266;52.340;4.962;2023-06-14T08:22:47;101779.63;;;21.59;40.08
36222;BME280;22266;52.340;4.962;2023-06-14T08:25:14;101778.75;;;21.59;40.07
36222;BME280;22266;52.340;4.962;2023-06-14T08:27:41;101776.66;;;21.49;40.52
36222;BME280;22266;52.340;4.962;2023-06-14T08:30:08;101783.56;;;21.52;41.13
36222;BME280;22266;52.340;4.962;2023-06-14T08:32:35;101784.25;;;21.59;41.13
36222;BME280;22266;52.340;4.962;2023-06-14T08:35:02;101773.00;;;21.72;41.36
36222;BME280;22266;52.340;4.962;2023-06-14T08:37:31;101775.56;;;21.79;41.59
36222;BME280;22266;52.340;4.962;2023-06-14T08:39:59;101770.28;;;21.89;41.44
36222;BME280;22266;52.340;4.962;2023-06-14T08:42:26;101777.28;;;21.96;40.57
36222;BME280;22266;52.340;4.962;2023-06-14T08:44:58;101773.88;;;22.06;39.68
36222;BME280;22266;52.340;4.962;2023-06-14T08:47:26;101775.63;;;22.12;40.20
36222;BME280;22266;52.340;4.962;2023-06-14T08:49:53;101783.19;;;22.05;38.92
36222;BME280;22266;52.340;4.962;2023-06-14T08:52:24;101784.25;;;22.04;39.11
36222;BME280;22266;52.340;4.962;2023-06-14T08:54:56;101779.44;;;22.11;38.98
36222;BME280;22266;52.340;4.962;2023-06-14T08:57:24;101776.34;;;22.08;39.05
36222;BME280;22266;52.340;4.962;2023-06-14T08:59:52;101761.53;;;22.20;38.80
36222;BME280;22266;52.340;4.962;2023-06-14T09:02:19;101772.22;;;22.39;38.53
36222;BME280;22266;52.340;4.962;2023-06-14T09:04:48;101770.41;;;22.44;38.64
36222;BME280;22266;52.340;4.962;2023-06-14T09:07:18;101775.97;;;22.50;38.82
36222;BME280;22266;52.340;4.962;2023-06-14T09:09:44;101772.41;;;22.49;38.09
36222;BME280;22266;52.340;4.962;2023-06-14T09:12:31;101771.63;;;22.70;36.96
36222;BME280;22266;52.340;4.962;2023-06-14T09:14:57;101780.19;;;22.74;37.61
36222;BME280;22266;52.340;4.962;2023-06-14T09:17:24;101768.28;;;22.68;37.13
36222;BME280;22266;52.340;4.962;2023-06-14T09:19:51;101777.88;;;22.66;36.98
36222;BME280;22266;52.340;4.962;2023-06-14T09:22:17;101776.59;;;22.74;36.81
36222;BME280;22266;52.340;4.962;2023-06-14T09:24:44;101778.53;;;22.73;36.38
36222;BME280;22266;52.340;4.962;2023-06-14T09:27:15;101779.97;;;22.81;35.80
36222;BME280;22266;52.340;4.962;2023-06-14T09:29:42;101776.94;;;22.77;36.86
36222;BME280;22266;52.340;4.962;2023-06-14T09:32:09;101778.91;;;22.82;37.08
36222;BME280;22266;52.340;4.962;2023-06-14T09:34:36;101779.41;;;22.79;34.93
36222;BME280;22266;52.340;4.962;2023-06-14T09:37:03;101785.06;;;22.89;35.04
36222;BME280;22266;52.340;4.962;2023-06-14T09:39:30;101787.81;;;22.89;35.39
36222;BME280;22266;52.340;4.962;2023-06-14T09:41:57;101781.13;;;22.85;35.00
36222;BME280;22266;52.340;4.962;2023-06-14T09:44:25;101779.44;;;23.01;35.08
36222;BME280;22266;52.340;4.962;2023-06-14T09:46:55;101778.56;;;23.17;34.83
36222;BME280;22266;52.340;4.962;2023-06-14T09:49:22;101783.56;;;23.20;35.62
36222;BME280;22266;52.340;4.962;2023-06-14T09:51:51;101781.63;;;23.20;35.44
36222;BME280;22266;52.340;4.962;2023-06-14T09:54:22;101788.56;;;23.01;35.57
36222;BME280;22266;52.340;4.962;2023-06-14T09:56:51;101787.19;;;23.04;35.25
36222;BME280;22266;52.340;4.962;2023-06-14T09:59:22;101790.84;;;23.09;35.66
36222;BME280;22266;52.340;4.962;2023-06-14T10:01:57;101782.66;;;23.14;35.97
36222;BME280;22266;52.340;4.962;2023-06-14T10:04:27;101784.91;;;23.17;35.47
36222;BME280;22266;52.340;4.962;2023-06-14T10:06:57;101783.38;;;23.27;35.03
36222;BME280;22266;52.340;4.962;2023-06-14T10:09:25;101787.94;;;23.21;34.93
36222;BME280;22266;52.340;4.962;2023-06-14T10:11:52;101787.78;;;23.28;33.75
36222;BME280;22266;52.340;4.962;2023-06-14T10:14:18;101788.72;;;23.16;34.63
36222;BME280;22266;52.340;4.962;2023-06-14T10:16:54;101794.88;;;23.24;34.18
36222;BME280;22266;52.340;4.962;2023-06-14T10:22:12;101781.38;;;23.44;34.59
36222;BME280;22266;52.340;4.962;2023-06-14T10:24:44;101784.44;;;23.48;33.98
36222;BME280;22266;52.340;4.962;2023-06-14T10:27:13;101778.25;;;23.35;34.69
36222;BME280;22266;52.340;4.962;2023-06-14T10:32:25;101775.41;;;23.52;34.15
36222;BME280;22266;52.340;4.962;2023-06-14T10:34:58;101770.28;;;23.61;35.07
36222;BME280;22266;52.340;4.962;2023-06-14T10:37:25;101780.03;;;23.47;34.56
36222;BME280;22266;52.340;4.962;2023-06-14T10:39:52;101771.66;;;23.58;33.37
36222;BME280;22266;52.340;4.962;2023-06-14T10:42:19;101787.09;;;23.64;33.56
36222;BME280;22266;52.340;4.962;2023-06-14T10:44:54;101787.09;;;23.64;32.52
36222;BME280;22266;52.340;4.962;2023-06-14T10:47:33;101780.66;;;23.54;32.51
36222;BME280;22266;52.340;4.962;2023-06-14T10:52:28;101786.25;;;23.64;33.18
36222;BME280;22266;52.340;4.962;2023-06-14T10:55:09;101794.38;;;23.76;34.11
36222;BME280;22266;52.340;4.962;2023-06-14T10:57:44;101784.69;;;23.68;34.19
36222;BME280;22266;52.340;4.962;2023-06-14T11:00:20;101790.19;;;23.68;33.53
36222;BME280;22266;52.340;4.962;2023-06-14T11:05:54;101791.06;;;23.74;33.13
36222;BME280;22266;52.340;4.962;2023-06-14T11:11:14;101794.06;;;23.99;33.76
36222;BME280;22266;52.340;4.962;2023-06-14T11:13:46;101788.59;;;24.04;34.72
36222;BME280;22266;52.340;4.962;2023-06-14T11:16:17;101798.19;;;24.02;34.62
36222;BME280;22266;52.340;4.962;2023-06-14T11:18:45;101783.00;;;23.94;34.31
36222;BME280;22266;52.340;4.962;2023-06-14T11:21:16;101792.28;;;23.83;34.26
36222;BME280;22266;52.340;4.962;2023-06-14T11:23:49;101781.19;;;23.78;35.16
36222;BME280;22266;52.340;4.962;2023-06-14T11:26:15;101789.53;;;23.83;35.12
36222;BME280;22266;52.340;4.962;2023-06-14T11:28:42;101777.69;;;23.82;36.90
36222;BME280;22266;52.340;4.962;2023-06-14T11:31:09;101780.78;;;23.91;37.86
36222;BME280;22266;52.340;4.962;2023-06-14T11:33:36;101781.88;;;23.90;35.53
36222;BME280;22266;52.340;4.962;2023-06-14T11:36:03;101773.38;;;23.91;36.30
36222;BME280;22266;52.340;4.962;2023-06-14T11:38:35;101774.16;;;23.87;36.82
36222;BME280;22266;52.340;4.962;2023-06-14T11:41:02;101763.00;;;23.99;36.73
36222;BME280;22266;52.340;4.962;2023-06-14T11:43:29;101769.31;;;23.99;36.90
36222;BME280;22266;52.340;4.962;2023-06-14T11:45:58;101761.38;;;24.03;37.67
36222;BME280;22266;52.340;4.962;2023-06-14T11:48:41;101768.88;;;24.12;37.24
36222;BME280;22266;52.340;4.962;2023-06-14T11:51:08;101772.97;;;24.10;35.81
36222;BME280;22266;52.340;4.962;2023-06-14T11:53:35;101764.47;;;24.11;34.45
36222;BME280;22266;52.340;4.962;2023-06-14T11:56:02;101773.78;;;24.10;34.57
36222;BME280;22266;52.340;4.962;2023-06-14T11:58:29;101768.06;;;24.12;34.63
36222;BME280;22266;52.340;4.962;2023-06-14T12:00:56;101769.34;;;24.04;34.07
36222;BME280;22266;52.340;4.962;2023-06-14T12:03:26;101773.72;;;24.00;35.08
36222;BME280;22266;52.340;4.962;2023-06-14T12:06:08;101766.00;;;23.97;35.00
36222;BME280;22266;52.340;4.962;2023-06-14T12:08:36;101767.63;;;23.98;36.06
36222;BME280;22266;52.340;4.962;2023-06-14T12:11:11;101762.28;;;24.13;35.98
36222;BME280;22266;52.340;4.962;2023-06-14T12:13:38;101773.78;;;24.10;34.13
36222;BME280;22266;52.340;4.962;2023-06-14T12:16:11;101776.03;;;24.13;35.65
36222;BME280;22266;52.340;4.962;2023-06-14T12:18:39;101771.94;;;24.16;36.77
36222;BME280;22266;52.340;4.962;2023-06-14T12:21:09;101770.03;;;24.22;36.97
36222;BME280;22266;52.340;4.962;2023-06-14T12:23:44;101781.53;;;24.13;35.68
36222;BME280;22266;52.340;4.962;2023-06-14T12:26:19;101774.28;;;24.02;35.68
36222;BME280;22266;52.340;4.962;2023-06-14T12:28:46;101765.75;;;23.99;36.18
36222;BME280;22266;52.340;4.962;2023-06-14T12:31:16;101763.06;;;24.09;36.91
36222;BME280;22266;52.340;4.962;2023-06-14T12:33:43;101772.97;;;24.10;36.99
36222;BME280;22266;52.340;4.962;2023-06-14T12:36:12;101772.97;;;24.10;37.09
36222;BME280;22266;52.340;4.962;2023-06-14T12:38:38;101769.69;;;24.13;37.06
36222;BME280;22266;52.340;4.962;2023-06-14T12:41:05;101761.16;;;24.14;37.14
36222;BME280;22266;52.340;4.962;2023-06-14T12:43:32;101770.59;;;24.18;37.26
36222;BME280;22266;52.340;4.962;2023-06-14T12:45:59;101784.63;;;24.22;36.05
36222;BME280;22266;52.340;4.962;2023-06-14T12:48:26;101776.63;;;24.15;36.20
36222;BME280;22266;52.340;4.962;2023-06-14T12:50:54;101774.91;;;24.09;36.48
36222;BME280;22266;52.340;4.962;2023-06-14T12:53:21;101768.59;;;24.14;37.83
36222;BME280;22266;52.340;4.962;2023-06-14T12:55:47;101775.53;;;24.22;38.15
36222;BME280;22266;52.340;4.962;2023-06-14T12:58:14;101782.47;;;24.29;37.91
36222;BME280;22266;52.340;4.962;2023-06-14T13:00:41;101773.44;;;24.34;37.36
36222;BME280;22266;52.340;4.962;2023-06-14T13:03:07;101771.09;;;24.48;36.46
36222;BME280;22266;52.340;4.962;2023-06-14T13:05:34;101766.97;;;24.50;37.18
36222;BME280;22266;52.340;4.962;2023-06-14T13:08:00;101765.97;;;24.66;37.38
36222;BME280;22266;52.340;4.962;2023-06-14T13:10:27;101768.22;;;24.75;36.16
36222;BME280;22266;52.340;4.962;2023-06-14T13:12:54;101768.22;;;24.75;35.83